Medemborg — PJAG — position and weather

sailwx.info

Track history (hours):
 
Tides and Currents Weather Stations Pressure Air Temp Water Temp Dewpoint Dewpoint Depression Visibility Wind Speed Wind Dir Waves Ship Positions

Medemborg

Last reported at 2014-Oct-31 06:31 UTC. Time now 2014-Oct-31 07:43 UTC.
Position N 55°14' E 013°05'.

Length 135 m; draft 7 m.

Type: Cargo ship. MMSI: 306581000.

Date/timePositionNaut miles runAvg speedWind from/ knotsBaromVisibWave heightAir tempDewpointWater temp
2014-Oct-31 06:31N 55°14' E 013°05'1212.1
2014-Oct-31 05:33N 55°16' E 012°45'10 9.7
2014-Oct-31 04:33N 55°25' E 012°39'1110.8
2014-Oct-31 03:33N 55°36' E 012°42'1010.2
2014-Oct-31 02:33N 55°46' E 012°41'1111.2
2014-Oct-31 01:33N 55°57' E 012°40'1110.8
2014-Oct-31 00:33N 56°07' E 012°31'1312.7
2014-Oct-30 23:33N 56°14' E 012°12'2412.2
2014-Oct-30 21:33N 56°36' E 011°55'1312.6
2014-Oct-30 20:33N 56°49' E 011°48'1212.6
2014-Oct-30 19:33N 57°01' E 011°41'1212.2
2014-Oct-30 18:33N 57°12' E 011°31'1212.2
2014-Oct-30 17:33N 57°23' E 011°25'1212.2
2014-Oct-30 16:33N 57°32' E 011°09'1413.4
2014-Oct-30 15:33N 57°39' E 010°47'7 6.7
2014-Oct-30 14:32N 57°42' E 010°36'0 0.1
2014-Oct-30 13:32N 57°42' E 010°36'0 0.1
2014-Oct-30 12:11N 57°42' E 010°36'0 0.0
2014-Oct-30 11:05N 57°42' E 010°36'0 0.1
2014-Oct-30 10:23N 57°42' E 010°36'5 6.0
2014-Oct-30 09:33N 57°43' E 010°45'9 8.7
2014-Oct-30 08:33N 57°47' E 010°30'1313.3
2014-Oct-30 07:33N 57°46' E 010°06'1313.1
2014-Oct-30 06:33N 57°45' E 009°41'12212.2
2014-Oct-29 20:33N 58°01' E 005°53'1312.1
2014-Oct-29 19:30N 58°10' E 005°35'  
2014-Oct-26 18:33N 63°36' E 009°49'1110.9
2014-Oct-26 17:33N 63°29' E 010°09'1313.2
2014-Oct-26 16:33N 63°36' E 010°34'1312.9
2014-Oct-26 15:33N 63°43' E 010°58'13 1.6
2014-Oct-26 07:33N 63°47' E 011°26'0 0.0
2014-Oct-25 17:32N 63°47' E 011°26'1 0.3
2014-Oct-25 14:21N 63°47' E 011°24'7 8.3
2014-Oct-25 13:33N 63°46' E 011°10'1313.3
2014-Oct-25 12:33N 63°39' E 010°43'1413.5
2014-Oct-25 11:33N 63°32' E 010°18'1111.2
2014-Oct-25 10:33N 63°31' E 009°53'1110.1
2014-Oct-25 09:30N 63°37' E 009°32'  
2014-Oct-22 05:30N 54°52' E 006°07'1 1.2
2014-Oct-22 04:33N 54°52' E 006°09'2 1.7
2014-Oct-22 03:34N 54°52' E 006°12'2 1.6
2014-Oct-22 02:33N 54°52' E 006°15'2 1.6
2014-Oct-22 01:32N 54°52' E 006°18'  
Track history (hours):
 
Tides and Currents Weather Stations Pressure Air Temp Water Temp Dewpoint Dewpoint Depression Visibility Wind Speed Wind Dir Waves Ship Positions

Medemborg

Last reported at 2014-Oct-31 06:31 UTC. Time now 2014-Oct-31 07:43 UTC.
Position N 55°14' E 013°05'.

Length 135 m; draft 7 m.

Type: Cargo ship. MMSI: 306581000.

Date/timePositionNaut miles runAvg speedWind from/ knotsBaromVisibWave heightAir tempDewpointWater temp
2014-Oct-31 06:31N 55°14' E 013°05'1212.1
2014-Oct-31 05:33N 55°16' E 012°45'10 9.7
2014-Oct-31 04:33N 55°25' E 012°39'1110.8
2014-Oct-31 03:33N 55°36' E 012°42'1010.2
2014-Oct-31 02:33N 55°46' E 012°41'1111.2
2014-Oct-31 01:33N 55°57' E 012°40'1110.8
2014-Oct-31 00:33N 56°07' E 012°31'1312.7
2014-Oct-30 23:33N 56°14' E 012°12'2412.2
2014-Oct-30 21:33N 56°36' E 011°55'1312.6
2014-Oct-30 20:33N 56°49' E 011°48'1212.6
2014-Oct-30 19:33N 57°01' E 011°41'1212.2
2014-Oct-30 18:33N 57°12' E 011°31'1212.2
2014-Oct-30 17:33N 57°23' E 011°25'1212.2
2014-Oct-30 16:33N 57°32' E 011°09'1413.4
2014-Oct-30 15:33N 57°39' E 010°47'7 6.7
2014-Oct-30 14:32N 57°42' E 010°36'0 0.1
2014-Oct-30 13:32N 57°42' E 010°36'0 0.1
2014-Oct-30 12:11N 57°42' E 010°36'0 0.0
2014-Oct-30 11:05N 57°42' E 010°36'0 0.1
2014-Oct-30 10:23N 57°42' E 010°36'5 6.0
2014-Oct-30 09:33N 57°43' E 010°45'9 8.7
2014-Oct-30 08:33N 57°47' E 010°30'1313.3
2014-Oct-30 07:33N 57°46' E 010°06'1313.1
2014-Oct-30 06:33N 57°45' E 009°41'12212.2
2014-Oct-29 20:33N 58°01' E 005°53'1312.1
2014-Oct-29 19:30N 58°10' E 005°35'  
2014-Oct-26 18:33N 63°36' E 009°49'1110.9
2014-Oct-26 17:33N 63°29' E 010°09'1313.2
2014-Oct-26 16:33N 63°36' E 010°34'1312.9
2014-Oct-26 15:33N 63°43' E 010°58'13 1.6
2014-Oct-26 07:33N 63°47' E 011°26'0 0.0
2014-Oct-25 17:32N 63°47' E 011°26'1 0.3
2014-Oct-25 14:21N 63°47' E 011°24'7 8.3
2014-Oct-25 13:33N 63°46' E 011°10'1313.3
2014-Oct-25 12:33N 63°39' E 010°43'1413.5
2014-Oct-25 11:33N 63°32' E 010°18'1111.2
2014-Oct-25 10:33N 63°31' E 009°53'1110.1
2014-Oct-25 09:30N 63°37' E 009°32'  
2014-Oct-22 05:30N 54°52' E 006°07'1 1.2
2014-Oct-22 04:33N 54°52' E 006°09'2 1.7
2014-Oct-22 03:34N 54°52' E 006°12'2 1.6
2014-Oct-22 02:33N 54°52' E 006°15'2 1.6
2014-Oct-22 01:32N 54°52' E 006°18'  

Dump ship's entire track history